Weather at St Charles Airport [CLOSED]

Public forecast

Using degrees Fahrenheit for public forecast. Weather courtesy of forecast.io.

Closest aviation weather report (METAR) to St Charles Airport

Closest report is St Charles County Smartt Airport, 5.9 nm (10.9 km) NE. Retrieved 2021/02/28 16:30 UTC (32 minutes ago):

KSET 281630Z AUTO 00000KT 6SM BR OVC012 13/12 A2982 RMK AO2 T01330117

Closest aviation forecast (TAF) to St Charles Airport

Closest forecast is St Louis Lambert International Airport, 8.6 nm (15.8 km) SE. Retrieved 2021/02/28 12:27 UTC (5 hours ago):

TAF KSTL 281124Z 2812/0118 19006KT 3SM BR VCSH OVC010 FM281400 22005KT 3SM BR OVC008 FM281600 24006KT P6SM OVC008 FM281800 27008KT P6SM VCSH OVC007 FM282100 30010G18KT P6SM VCSH OVC020 FM282300 32011KT P6SM OVC060